Time;durP1;ratioP1;P1;durP2;ratioP2;P2;SDS_P1;SDS_P2;PMS_P1;PMS_P2;Temp;Humidity;BMP_temperature;BMP_pressure;BME280_temperature;BME280_humidity;BME280_pressure;Samples;Min_cycle;Max_cycle;Signal;HPM_P1;HPM_P2
2022/10/19 00:00:31;;;;;;;8.90;5.07;;;;;;;5.62;97.86;103035.16;6220387;23;20037;-75
2022/10/19 00:02:57;;;;;;;5.53;4.85;;;;;;;5.65;97.67;103034.47;6220418;23;20457;-75
2022/10/19 00:05:24;;;;;;;8.15;5.53;;;;;;;5.62;97.76;103032.50;6220198;23;20019;-75
2022/10/19 00:07:50;;;;;;;7.03;5.70;;;;;;;5.60;97.75;103037.38;6219923;23;20025;-75
2022/10/19 00:10:17;;;;;;;10.10;5.40;;;;;;;5.58;97.55;103037.00;6219581;23;20091;-75
2022/10/19 00:12:43;;;;;;;10.98;5.45;;;;;;;5.56;97.56;103033.94;6219872;23;20068;-75
2022/10/19 00:15:09;;;;;;;9.25;5.03;;;;;;;5.56;97.87;103032.06;6220196;23;20020;-75
2022/10/19 00:17:36;;;;;;;24.90;5.28;;;;;;;5.53;98.00;103037.28;6219739;23;20096;-75
2022/10/19 00:20:03;;;;;;;21.77;4.95;;;;;;;5.51;98.25;103029.69;6220077;23;20457;-75
2022/10/19 00:22:29;;;;;;;20.98;4.68;;;;;;;5.44;98.20;103028.78;6220150;23;20049;-75
2022/10/19 00:24:56;;;;;;;10.90;5.32;;;;;;;5.45;98.29;103022.41;6219012;23;20092;-75
2022/10/19 00:27:23;;;;;;;16.83;5.72;;;;;;;5.44;98.04;103026.16;6222445;23;20153;-75
2022/10/19 00:29:49;;;;;;;6.43;5.47;;;;;;;5.38;98.16;103024.91;6223118;23;20115;-75
2022/10/19 00:32:15;;;;;;;8.05;5.13;;;;;;;5.33;98.39;103025.94;6223469;23;20033;-75
2022/10/19 00:34:42;;;;;;;7.45;4.70;;;;;;;5.29;98.18;103017.94;6222869;23;20165;-75
2022/10/19 00:37:08;;;;;;;10.30;4.97;;;;;;;5.29;98.14;103027.72;6223655;23;20045;-75
2022/10/19 00:39:35;;;;;;;5.95;5.07;;;;;;;5.26;97.99;103029.19;6222343;23;20093;-75
2022/10/19 00:42:01;;;;;;;10.77;4.88;;;;;;;5.24;98.13;103025.38;6223277;23;20041;-75
2022/10/19 00:44:28;;;;;;;5.68;5.03;;;;;;;5.21;97.68;103024.19;6223075;23;20020;-75
2022/10/19 00:47:00;;;;;;;7.68;4.50;;;;;;;5.23;97.49;103029.13;6222986;23;20534;-75
2022/10/19 00:49:37;;;;;;;6.93;4.63;;;;;;;5.21;97.36;103020.78;6223432;23;20040;-75
2022/10/19 00:52:09;;;;;;;4.88;4.38;;;;;;;5.16;96.90;103021.09;6196875;23;20092;-75
2022/10/19 00:54:38;;;;;;;10.32;4.53;;;;;;;5.07;97.28;103021.28;6222387;23;20112;-75
2022/10/19 00:57:06;;;;;;;6.00;4.40;;;;;;;5.05;97.22;103025.38;6223274;23;20041;-75
2022/10/19 00:59:33;;;;;;;7.40;4.55;;;;;;;5.01;97.08;103026.06;6223126;23;20012;-76
2022/10/19 01:02:03;;;;;;;9.32;4.78;;;;;;;4.97;97.20;103021.81;6223153;23;20040;-76
2022/10/19 01:04:32;;;;;;;26.40;4.90;;;;;;;4.96;97.29;103015.75;6223186;23;20017;-75
2022/10/19 01:07:01;;;;;;;8.85;5.30;;;;;;;4.91;97.63;103020.53;6222950;23;20479;-75
2022/10/19 01:09:27;;;;;;;24.35;5.15;;;;;;;4.94;97.62;103017.97;6221288;23;20526;-75
2022/10/19 01:12:09;;;;;;;32.28;5.32;;;;;;;4.91;97.30;103013.38;6222554;23;20079;-75
2022/10/19 01:14:52;;;;;;;;;;;;;;;4.89;97.40;103018.25;6222920;23;20450;-75
2022/10/19 01:17:50;;;;;;;15.05;4.50;;;;;;;4.85;97.63;103008.72;6222656;23;20011;-77
2022/10/19 01:20:59;;;;;;;15.70;5.35;;;;;;;4.85;97.53;103006.84;6223373;23;20019;-77
2022/10/19 01:24:17;;;;;;;6.30;5.28;;;;;;;4.81;97.47;103003.38;6222486;23;20095;-77
2022/10/19 01:27:07;;;;;;;8.25;5.57;;;;;;;4.81;97.70;103003.38;6071345;23;20059;-77
2022/10/19 01:30:11;;;;;;;7.40;5.28;;;;;;;4.81;97.36;102998.09;6072145;23;20102;-77
2022/10/19 01:32:51;;;;;;;7.78;5.82;;;;;;;4.76;97.83;103001.00;6052930;23;20023;-77
2022/10/19 01:35:41;;;;;;;5.78;4.72;;;;;;;4.72;97.77;102997.53;6072353;23;20090;-77
2022/10/19 01:38:26;;;;;;;8.10;5.43;;;;;;;4.72;97.68;102986.97;6046173;23;20098;-77
2022/10/19 01:40:58;;;;;;;11.70;5.18;;;;;;;4.69;97.79;102985.78;6070052;23;20561;-77
2022/10/19 01:43:44;;;;;;;7.20;5.10;;;;;;;4.63;97.63;102991.69;6069626;23;20033;-77
2022/10/19 01:46:27;;;;;;;6.30;4.97;;;;;;;4.54;97.70;102988.44;6070485;23;20398;-77
2022/10/19 01:49:01;;;;;;;5.75;5.25;;;;;;;4.52;97.74;102983.50;6069441;23;20526;-77
2022/10/19 01:51:33;;;;;;;5.13;4.70;;;;;;;4.45;97.59;102988.63;6045490;23;20074;-77
2022/10/19 01:54:03;;;;;;;;;;;;;;;4.43;97.48;102982.16;6070814;23;20407;-77
2022/10/19 01:56:32;;;;;;;4.35;3.95;;;;;;;4.38;97.37;102988.47;6070389;23;20009;-77
2022/10/19 01:59:03;;;;;;;4.45;4.05;;;;;;;4.35;97.72;102986.53;6045754;23;20539;-77
2022/10/19 02:01:34;;;;;;;9.32;4.00;;;;;;;4.33;97.14;102989.50;6061816;23;20033;-77
2022/10/19 02:04:02;;;;;;;4.40;4.00;;;;;;;4.33;97.04;102988.75;6190748;23;20073;-77
2022/10/19 02:06:28;;;;;;;4.75;4.30;;;;;;;4.30;96.88;102997.34;6189846;23;20056;-77
2022/10/19 02:08:55;;;;;;;5.15;4.63;;;;;;;4.26;97.41;102985.94;6190180;23;20021;-77
2022/10/19 02:11:22;;;;;;;5.80;4.32;;;;;;;4.27;97.49;102992.75;6190897;23;20017;-77
2022/10/19 02:13:55;;;;;;;6.20;4.45;;;;;;;4.25;97.40;102990.44;6190384;23;20422;-78
2022/10/19 02:17:02;;;;;;;4.15;3.85;;;;;;;4.23;97.15;102997.94;6190899;23;20093;-77
2022/10/19 02:19:28;;;;;;;5.45;4.10;;;;;;;4.18;97.31;102989.50;6190673;23;20048;-77
2022/10/19 02:21:55;;;;;;;5.38;4.28;;;;;;;4.13;97.61;102984.47;6189680;23;20052;-78
2022/10/19 02:24:22;;;;;;;5.18;4.45;;;;;;;4.11;97.86;102984.81;6190570;23;20013;-77
2022/10/19 02:26:49;;;;;;;4.78;4.30;;;;;;;4.11;97.72;102991.97;6190225;23;20451;-77
2022/10/19 02:29:15;;;;;;;6.20;4.07;;;;;;;4.03;97.70;102991.03;6190357;23;20104;-77
2022/10/19 02:31:42;;;;;;;8.80;4.10;;;;;;;3.98;97.63;102989.44;6190251;23;20105;-77
2022/10/19 02:34:09;;;;;;;7.68;4.03;;;;;;;3.98;97.47;102988.66;6188576;23;20025;-77
2022/10/19 02:36:35;;;;;;;19.27;4.80;;;;;;;3.92;97.33;102982.88;6188089;23;20779;-74
2022/10/19 02:39:02;;;;;;;4.63;4.22;;;;;;;3.92;97.54;102977.59;6190418;23;20096;-78
2022/10/19 02:41:41;;;;;;;4.35;3.90;;;;;;;3.93;97.34;102983.63;6190584;23;20097;-77
2022/10/19 02:44:22;;;;;;;4.18;3.88;;;;;;;3.93;97.36;102983.63;6207111;23;20088;-75
2022/10/19 02:46:55;;;;;;;9.87;4.03;;;;;;;3.92;97.22;102974.19;6220316;23;20023;-75
2022/10/19 02:49:23;;;;;;;6.03;4.43;;;;;;;3.91;97.15;102962.91;6219777;23;20519;-74
2022/10/19 02:51:59;;;;;;;4.47;4.07;;;;;;;3.86;97.27;102970.28;6220581;23;20474;-75
2022/10/19 02:54:27;;;;;;;8.00;4.20;;;;;;;3.82;97.37;102970.19;6220686;23;20044;-75
2022/10/19 02:56:54;;;;;;;4.18;3.88;;;;;;;3.82;97.40;102970.19;6220302;23;20080;-77
2022/10/19 02:59:20;;;;;;;4.90;4.15;;;;;;;3.82;97.24;102972.06;6220642;23;20023;-77
2022/10/19 03:01:47;;;;;;;7.85;4.32;;;;;;;3.81;97.26;102965.25;6220113;23;20022;-77
2022/10/19 03:04:13;;;;;;;10.20;4.60;;;;;;;3.76;97.27;102974.19;6220102;23;20115;-77
2022/10/19 03:06:40;;;;;;;6.63;4.35;;;;;;;3.76;97.30;102968.13;6220197;23;20092;-75
2022/10/19 03:09:07;;;;;;;7.65;4.63;;;;;;;3.73;97.17;102960.91;6220190;23;20095;-74
2022/10/19 03:11:33;;;;;;;7.13;4.95;;;;;;;3.71;96.84;102971.00;6220115;23;20092;-75
2022/10/19 03:13:59;;;;;;;8.82;5.53;;;;;;;3.65;96.72;102962.59;6220444;23;20100;-74
2022/10/19 03:16:26;;;;;;;6.25;4.40;;;;;;;3.66;96.94;102956.22;6220509;23;20037;-74
2022/10/19 03:18:53;;;;;;;6.35;4.65;;;;;;;3.65;96.80;102958.09;6219716;23;20097;-75
2022/10/19 03:21:20;;;;;;;12.48;4.25;;;;;;;3.62;96.73;102956.13;6220510;23;20489;-75
2022/10/19 03:23:46;;;;;;;11.10;5.10;;;;;;;3.59;97.07;102948.16;6193105;23;20055;-75
2022/10/19 03:26:15;;;;;;;8.00;4.43;;;;;;;3.58;97.34;102950.03;6220625;23;20024;-75
2022/10/19 03:28:41;;;;;;;12.27;4.70;;;;;;;3.57;97.47;102948.50;6219957;23;20079;-75
2022/10/19 03:31:08;;;;;;;4.43;4.03;;;;;;;3.58;97.38;102942.13;6220434;23;20021;-75
2022/10/19 03:33:34;;;;;;;4.75;4.25;;;;;;;3.55;96.79;102945.44;6219302;23;20068;-77
2022/10/19 03:36:21;;;;;;;5.07;3.92;;;;;;;3.52;97.34;102945.34;6220507;23;20917;-77
2022/10/19 03:38:52;;;;;;;5.70;3.88;;;;;;;3.49;97.21;102948.66;6220018;23;20092;-77
2022/10/19 03:41:24;;;;;;;4.87;4.17;;;;;;;3.44;96.98;102949.66;6220366;23;20815;-77
2022/10/19 03:43:50;;;;;;;7.22;3.85;;;;;;;3.39;97.14;102947.25;6219687;23;20461;-77
2022/10/19 03:46:17;;;;;;;3.90;3.45;;;;;;;3.35;96.82;102946.41;6220838;23;20023;-76
2022/10/19 03:48:44;;;;;;;6.72;3.95;;;;;;;3.32;96.99;102949.69;6219372;23;20510;-75
2022/10/19 03:51:15;;;;;;;9.20;3.92;;;;;;;3.30;96.72;102947.41;6220408;23;20054;-76
2022/10/19 03:53:42;;;;;;;6.30;3.65;;;;;;;3.25;96.88;102945.00;6220068;23;20533;-76
2022/10/19 03:56:15;;;;;;;5.50;3.95;;;;;;;3.27;96.90;102939.41;6220200;23;20020;-76
2022/10/19 03:58:43;;;;;;;4.65;3.88;;;;;;;3.27;97.14;102945.44;6219898;23;20091;-76
2022/10/19 04:01:16;;;;;;;5.70;4.40;;;;;;;3.26;97.63;102940.50;6219821;23;20018;-76
2022/10/19 04:03:43;;;;;;;7.88;3.78;;;;;;;3.25;97.38;102944.22;6192552;23;20013;-76
2022/10/19 04:06:15;;;;;;;4.82;4.07;;;;;;;3.22;96.93;102947.53;6220326;23;20024;-76
2022/10/19 04:08:48;;;;;;;5.15;4.05;;;;;;;3.17;96.95;102945.16;6219766;23;20021;-76
2022/10/19 04:11:16;;;;;;;5.50;3.90;;;;;;;3.20;96.88;102947.13;6220162;23;20059;-76
2022/10/19 04:13:43;;;;;;;3.97;3.60;;;;;;;3.21;97.16;102943.38;6219553;23;20415;-76
2022/10/19 04:16:12;;;;;;;4.38;3.97;;;;;;;3.19;96.79;102941.09;6220020;23;20465;-76
2022/10/19 04:18:38;;;;;;;7.95;3.95;;;;;;;3.19;96.87;102948.22;6219747;23;20064;-76
2022/10/19 04:21:05;;;;;;;4.38;4.07;;;;;;;3.18;96.64;102944.06;6220101;23;20017;-76
2022/10/19 04:23:34;;;;;;;4.68;4.10;;;;;;;3.16;97.16;102943.63;6220083;23;20399;-76
2022/10/19 04:26:04;;;;;;;4.78;3.78;;;;;;;3.15;97.11;102942.88;6220065;23;20018;-76
2022/10/19 04:28:31;;;;;;;5.10;3.90;;;;;;;3.13;96.90;102947.69;6220004;23;20023;-76
2022/10/19 04:31:01;;;;;;;4.85;3.63;;;;;;;3.13;97.11;102950.31;6219480;23;20017;-77
2022/10/19 04:33:27;;;;;;;5.20;3.60;;;;;;;3.12;97.08;102945.41;6220072;23;20756;-76
2022/10/19 04:35:58;;;;;;;7.82;3.65;;;;;;;3.07;97.04;102948.25;6219564;23;20013;-77
2022/10/19 04:38:25;;;;;;;3.60;3.30;;;;;;;3.08;97.08;102940.03;6219949;23;20009;-76
2022/10/19 04:40:52;;;;;;;5.03;3.47;;;;;;;3.08;97.09;102934.78;6219398;23;20092;-76
2022/10/19 04:43:18;;;;;;;5.63;3.80;;;;;;;3.08;97.16;102940.03;6219077;23;20459;-77
2022/10/19 04:45:45;;;;;;;4.57;4.18;;;;;;;3.06;97.23;102942.22;6219152;23;20080;-77
2022/10/19 04:48:11;;;;;;;6.38;4.10;;;;;;;3.04;96.90;102943.66;6219483;23;20092;-77
2022/10/19 04:50:40;;;;;;;4.43;4.03;;;;;;;3.01;96.92;102943.22;6219299;23;20029;-77
2022/10/19 04:53:07;;;;;;;4.40;3.70;;;;;;;3.00;97.20;102951.47;6220055;23;20019;-76
2022/10/19 04:55:33;;;;;;;4.53;4.13;;;;;;;2.99;96.87;102949.94;6219364;23;20037;-76
2022/10/19 04:57:59;;;;;;;4.47;3.80;;;;;;;2.89;96.91;102950.38;6219698;23;20013;-76
2022/10/19 05:00:26;;;;;;;4.90;3.63;;;;;;;2.87;97.03;102950.72;6219278;23;20044;-76
2022/10/19 05:02:52;;;;;;;4.97;3.90;;;;;;;2.80;97.21;102945.25;6219493;23;20092;-76
2022/10/19 05:05:19;;;;;;;4.50;3.85;;;;;;;2.79;97.17;102943.75;6219854;23;20044;-76
2022/10/19 05:07:47;;;;;;;4.30;3.85;;;;;;;2.83;97.22;102943.81;6219316;23;20017;-76
2022/10/19 05:10:14;;;;;;;3.90;3.58;;;;;;;2.83;97.13;102943.81;6219856;23;20321;-76
2022/10/19 05:12:40;;;;;;;6.57;3.67;;;;;;;2.82;96.96;102942.28;6192308;23;20405;-75
2022/10/19 05:15:07;;;;;;;4.00;3.65;;;;;;;2.82;96.84;102934.38;6220548;23;20047;-75
2022/10/19 05:17:34;;;;;;;5.80;3.97;;;;;;;2.81;96.86;102941.50;6220640;23;20013;-76
2022/10/19 05:20:01;;;;;;;5.93;4.80;;;;;;;2.80;97.02;102941.88;6221130;23;20024;-75
2022/10/19 05:22:27;;;;;;;4.85;3.95;;;;;;;2.80;96.93;102941.88;6221307;23;20077;-76
2022/10/19 05:24:53;;;;;;;4.30;3.85;;;;;;;2.81;97.20;102936.25;6220686;23;20443;-76
2022/10/19 05:27:23;;;;;;;3.80;3.50;;;;;;;2.79;96.96;102938.47;6220822;23;20418;-76
2022/10/19 05:29:50;;;;;;;10.23;4.28;;;;;;;2.80;97.08;102932.09;6193588;23;20117;-76
2022/10/19 05:32:16;;;;;;;8.05;3.97;;;;;;;2.75;96.89;102927.09;6220957;23;20451;-76
2022/10/19 05:34:43;;;;;;;5.53;3.72;;;;;;;2.75;97.13;102921.81;6220670;23;20469;-77
2022/10/19 05:37:09;;;;;;;4.35;3.67;;;;;;;2.74;97.38;102925.56;6221195;23;20048;-76
2022/10/19 05:39:35;;;;;;;4.85;3.80;;;;;;;2.74;97.18;102925.56;6221652;23;20017;-76
2022/10/19 05:42:02;;;;;;;6.30;3.95;;;;;;;2.71;96.89;102926.22;6221407;23;20037;-76
2022/10/19 05:44:29;;;;;;;6.60;3.80;;;;;;;2.64;97.07;102934.66;6220999;23;20458;-77
2022/10/19 05:46:55;;;;;;;8.88;3.95;;;;;;;2.61;97.11;102932.69;6220856;23;20012;-78
2022/10/19 05:49:22;;;;;;;7.70;4.10;;;;;;;2.56;97.13;102932.16;6220677;23;20096;-77
2022/10/19 05:51:49;;;;;;;9.35;4.28;;;;;;;2.54;97.04;102929.06;6220593;23;20084;-77
2022/10/19 05:54:15;;;;;;;4.22;3.83;;;;;;;2.49;96.95;102922.19;6220792;23;20037;-79
2022/10/19 05:56:42;;;;;;;7.13;3.45;;;;;;;2.49;97.21;102924.03;6194503;23;20100;-79
2022/10/19 05:59:13;;;;;;;3.88;3.58;;;;;;;2.50;96.75;102921.09;6220935;23;20017;-78
2022/10/19 06:01:39;;;;;;;4.00;3.60;;;;;;;2.52;97.08;102916.25;6221897;23;20041;-78
2022/10/19 06:04:06;;;;;;;5.40;3.78;;;;;;;2.53;97.11;102932.81;6221688;23;20025;-77
2022/10/19 06:06:33;;;;;;;6.38;4.32;;;;;;;2.55;96.94;102930.63;6221325;23;20017;-79
2022/10/19 06:08:59;;;;;;;4.45;4.05;;;;;;;2.55;97.31;102928.75;6221113;23;20053;-77
2022/10/19 06:11:28;;;;;;;6.00;4.35;;;;;;;2.54;97.24;102915.94;6221273;23;20116;-78
2022/10/19 06:13:57;;;;;;;5.20;4.57;;;;;;;2.54;97.41;102919.34;6220962;23;20048;-78
2022/10/19 06:16:25;;;;;;;5.00;4.50;;;;;;;2.55;97.53;102918.22;6221642;23;20049;-77
2022/10/19 06:18:53;;;;;;;4.97;4.47;;;;;;;2.57;97.53;102923.16;6221535;23;20092;-77
2022/10/19 06:21:23;;;;;;;4.78;3.90;;;;;;;2.58;97.81;102919.44;6221423;23;20518;-77
2022/10/19 06:23:55;;;;;;;8.52;4.55;;;;;;;2.58;97.86;102932.59;6221339;23;20048;-79
2022/10/19 06:26:22;;;;;;;10.65;4.72;;;;;;;2.56;97.95;102929.53;6194576;23;20053;-78
2022/10/19 06:28:50;;;;;;;8.30;4.53;;;;;;;2.53;97.85;102940.69;6220670;23;20048;-79
2022/10/19 06:31:16;;;;;;;4.57;3.85;;;;;;;2.55;98.12;102935.88;6221566;23;20037;-79
2022/10/19 06:33:44;;;;;;;7.03;4.25;;;;;;;2.60;98.19;102938.28;6194560;23;20056;-78
2022/10/19 06:36:17;;;;;;;8.18;3.85;;;;;;;2.64;98.15;102944.41;6221357;23;20021;-79
2022/10/19 06:38:44;;;;;;;7.38;4.47;;;;;;;2.66;97.96;102940.34;6221480;23;20100;-78
2022/10/19 06:41:11;;;;;;;4.85;3.90;;;;;;;2.69;98.18;102938.94;6220904;23;20461;-78
2022/10/19 06:43:37;;;;;;;6.85;4.50;;;;;;;2.70;98.66;102937.06;6221042;23;20041;-78
2022/10/19 06:46:06;;;;;;;7.82;4.88;;;;;;;2.73;98.45;102933.78;6221358;23;20105;-78
2022/10/19 06:48:32;;;;;;;8.70;5.05;;;;;;;2.75;98.37;102932.34;6220983;23;20029;-79
2022/10/19 06:51:02;;;;;;;6.30;4.90;;;;;;;2.76;98.53;102930.47;6221168;23;20009;-77
2022/10/19 06:53:33;;;;;;;7.10;5.10;;;;;;;2.80;98.66;102929.47;6221197;23;20367;-78
2022/10/19 06:56:02;;;;;;;16.10;5.60;;;;;;;2.84;98.75;102932.97;6220043;23;20041;-78
2022/10/19 06:58:28;;;;;;;53.17;8.68;;;;;;;2.90;99.07;102923.75;6221233;23;20037;-78
2022/10/19 07:00:59;;;;;;;34.70;7.63;;;;;;;2.98;99.38;102919.44;6221366;23;20036;-77
2022/10/19 07:03:27;;;;;;;40.97;9.50;;;;;;;3.04;99.52;102925.25;6221491;23;20013;-77
2022/10/19 07:05:59;;;;;;;47.08;10.30;;;;;;;3.09;99.54;102914.47;6221218;23;20017;-77
2022/10/19 07:08:27;;;;;;;49.70;11.80;;;;;;;3.17;99.73;102918.84;6194374;23;20116;-79
2022/10/19 07:10:56;;;;;;;48.80;11.38;;;;;;;3.27;100.00;102919.09;6220941;23;20017;-77
2022/10/19 07:13:22;;;;;;;34.42;12.73;;;;;;;3.39;100.00;102917.53;6221264;23;20052;-77
2022/10/19 07:15:56;;;;;;;41.72;10.43;;;;;;;3.56;100.00;102919.88;6194359;23;20052;-76
2022/10/19 07:18:23;;;;;;;54.45;12.02;;;;;;;3.66;100.00;102920.09;6221266;23;20045;-76
2022/10/19 07:20:57;;;;;;;25.33;8.82;;;;;;;3.72;100.00;102917.22;6194315;23;20098;-77
2022/10/19 07:23:25;;;;;;;29.23;10.43;;;;;;;3.85;100.00;102910.78;6221116;23;20041;-76
2022/10/19 07:25:54;;;;;;;30.95;9.43;;;;;;;3.97;100.00;102924.66;6220375;23;20478;-76
2022/10/19 07:28:21;;;;;;;39.13;10.50;;;;;;;4.09;100.00;102926.41;6220011;23;20446;-76
2022/10/19 07:30:47;;;;;;;25.23;9.48;;;;;;;4.24;100.00;102920.34;6221013;23;20041;-76
2022/10/19 07:33:14;;;;;;;18.55;8.70;;;;;;;4.39;100.00;102918.03;6220996;23;20048;-77
2022/10/19 07:35:40;;;;;;;15.38;7.85;;;;;;;4.52;100.00;102916.81;6220039;23;20497;-77
2022/10/19 07:38:07;;;;;;;11.90;6.30;;;;;;;4.64;100.00;102924.59;6220788;23;20049;-77
2022/10/19 07:40:34;;;;;;;6.82;5.70;;;;;;;4.74;100.00;102921.44;6219811;23;20071;-76
2022/10/19 07:43:01;;;;;;;10.73;5.60;;;;;;;4.89;100.00;102933.03;6220740;23;20068;-76
2022/10/19 07:45:28;;;;;;;15.15;5.13;;;;;;;5.02;100.00;102923.88;6190538;23;20077;-75
2022/10/19 07:47:55;;;;;;;12.00;4.72;;;;;;;5.17;100.00;102927.56;6190592;23;20428;-76
2022/10/19 07:50:26;;;;;;;9.70;4.30;;;;;;;5.30;100.00;102923.63;6190520;23;20017;-76
2022/10/19 07:52:53;;;;;;;4.40;4.00;;;;;;;5.45;100.00;102933.34;6190598;23;20092;-83
2022/10/19 07:55:19;;;;;;;5.80;4.65;;;;;;;5.63;100.00;102931.00;6189908;23;20085;-78
2022/10/19 07:57:47;;;;;;;10.00;4.20;;;;;;;5.82;100.00;102930.19;6190430;23;20097;-77
2022/10/19 08:00:15;;;;;;;9.23;4.35;;;;;;;5.98;100.00;102933.50;6190673;23;20052;-77
2022/10/19 08:02:43;;;;;;;7.93;4.15;;;;;;;6.11;100.00;102929.53;6190452;23;20045;-76
2022/10/19 08:05:32;;;;;;;6.47;3.58;;;;;;;6.24;100.00;102933.50;6190579;23;20084;-76
2022/10/19 08:07:58;;;;;;;8.98;3.85;;;;;;;6.38;100.00;102932.19;6190807;23;20088;-76
2022/10/19 08:10:25;;;;;;;10.45;3.35;;;;;;;6.51;100.00;102931.59;6189737;23;20088;-76
2022/10/19 08:12:51;;;;;;;6.80;3.53;;;;;;;6.64;100.00;102935.56;6190583;23;20089;-76
2022/10/19 08:15:17;;;;;;;7.35;4.05;;;;;;;6.78;100.00;102935.00;6190411;23;20101;-76
2022/10/19 08:17:44;;;;;;;14.18;5.47;;;;;;;6.86;100.00;102933.94;6190210;23;20046;-76
2022/10/19 08:20:10;;;;;;;17.15;10.95;;;;;;;6.96;100.00;102929.91;6190392;23;20467;-76
2022/10/19 08:22:37;;;;;;;21.52;11.20;;;;;;;7.10;100.00;102935.38;6189729;23;20092;-77
2022/10/19 08:25:03;;;;;;;13.82;9.15;;;;;;;7.24;100.00;102929.44;6164122;23;20013;-76
2022/10/19 08:27:30;;;;;;;6.53;4.10;;;;;;;7.39;100.00;102941.72;6190323;23;20037;-76
2022/10/19 08:29:56;;;;;;;8.82;3.83;;;;;;;7.54;100.00;102930.13;6163571;23;20032;-76
2022/10/19 08:32:23;;;;;;;7.15;3.85;;;;;;;7.69;100.00;102937.06;6190454;23;20037;-76
2022/10/19 08:34:49;;;;;;;10.27;4.35;;;;;;;7.83;100.00;102928.47;6190295;23;20471;-77
2022/10/19 08:37:16;;;;;;;9.55;5.00;;;;;;;7.94;100.00;102925.91;6189737;23;20077;-77
2022/10/19 08:40:03;;;;;;;4.88;4.15;;;;;;;8.10;100.00;102917.66;6190229;23;20013;-77
2022/10/19 08:43:11;;;;;;;9.55;4.30;;;;;;;8.26;100.00;102918.16;6190683;23;20856;-77
2022/10/19 08:45:41;;;;;;;13.20;5.03;;;;;;;8.38;100.00;102915.22;6190375;23;20348;-76
2022/10/19 08:48:21;;;;;;;10.23;3.70;;;;;;;8.48;100.00;102909.19;6190981;23;20076;-74
2022/10/19 08:50:48;;;;;;;4.40;3.20;;;;;;;8.62;100.00;102911.16;6191313;23;20045;-75
2022/10/19 08:53:21;;;;;;;5.85;3.47;;;;;;;8.74;100.00;102908.19;6190977;23;20408;-75
2022/10/19 08:56:05;;;;;;;11.13;3.78;;;;;;;8.87;100.00;102903.28;6191118;23;20491;-75
2022/10/19 08:58:56;;;;;;;8.02;4.00;;;;;;;8.98;100.00;102906.72;6191478;23;20025;-75
2022/10/19 09:01:35;;;;;;;5.60;4.40;;;;;;;9.09;100.00;102898.78;6189796;23;20017;-75
2022/10/19 09:04:18;;;;;;;9.30;4.68;;;;;;;9.20;100.00;102894.22;6191222;23;20013;-75
2022/10/19 09:06:59;;;;;;;6.45;3.45;;;;;;;9.30;100.00;102896.16;6190816;23;20441;-75
2022/10/19 09:09:28;;;;;;;5.68;3.03;;;;;;;9.41;100.00;102891.63;6191423;23;20021;-75
2022/10/19 09:12:01;;;;;;;11.35;3.50;;;;;;;9.52;98.87;102883.66;6191050;23;20104;-75
2022/10/19 09:14:37;;;;;;;3.72;2.97;;;;;;;9.61;98.11;102870.72;6191489;23;20069;-74
2022/10/19 09:17:11;;;;;;;7.22;3.10;;;;;;;9.73;97.42;102882.88;6191431;23;20041;-78
2022/10/19 09:19:37;;;;;;;4.90;2.90;;;;;;;9.82;97.73;102885.91;6191486;23;20029;-75
2022/10/19 09:22:17;;;;;;;9.68;3.10;;;;;;;9.92;97.33;102882.47;6190720;23;20013;-76
2022/10/19 09:24:52;;;;;;;10.70;2.78;;;;;;;9.99;96.35;102885.91;6191679;23;20041;-76
2022/10/19 09:27:25;;;;;;;9.98;3.08;;;;;;;10.10;96.19;102890.41;6191347;23;20048;-77
2022/10/19 09:29:57;;;;;;;8.57;2.97;;;;;;;10.20;95.10;102885.09;6191342;23;20064;-75
2022/10/19 09:32:30;;;;;;;6.93;3.15;;;;;;;10.29;94.25;102890.78;6191320;23;20096;-76
2022/10/19 09:35:06;;;;;;;5.45;2.78;;;;;;;10.36;93.84;102890.00;6191381;23;20022;-78
2022/10/19 09:37:43;;;;;;;3.90;2.92;;;;;;;10.45;92.95;102876.25;6165082;23;20089;-77
2022/10/19 09:40:25;;;;;;;4.03;2.72;;;;;;;10.54;92.75;102869.38;6191110;23;20052;-76
2022/10/19 09:42:56;;;;;;;5.88;2.55;;;;;;;10.63;91.54;102867.06;6191721;23;20721;-75
2022/10/19 09:45:47;;;;;;;6.30;3.40;;;;;;;10.73;91.99;102865.50;6192935;23;20489;-75
2022/10/19 09:48:40;;;;;;;9.27;2.80;;;;;;;10.81;91.25;102866.94;6221442;23;20019;-75
2022/10/19 09:51:12;;;;;;;5.35;2.55;;;;;;;10.87;89.42;102857.41;6220805;23;20221;-76
2022/10/19 09:53:43;;;;;;;9.60;2.67;;;;;;;10.92;89.16;102858.91;6221542;23;20057;-76
2022/10/19 09:56:18;;;;;;;4.80;2.17;;;;;;;10.95;87.88;102858.88;6221279;23;20447;-75
2022/10/19 09:58:50;;;;;;;6.07;2.90;;;;;;;10.94;86.77;102852.03;6221207;23;20089;-75
2022/10/19 10:01:38;;;;;;;5.80;2.38;;;;;;;10.97;86.86;102856.59;6221494;23;20041;-77
2022/10/19 10:04:16;;;;;;;3.95;2.40;;;;;;;10.98;87.13;102865.34;6220764;23;20048;-78
2022/10/19 10:06:46;;;;;;;4.18;2.28;;;;;;;10.99;85.07;102848.97;6221543;23;20084;-78
2022/10/19 10:09:16;;;;;;;4.10;2.20;;;;;;;11.05;84.63;102856.56;6220551;23;20052;-78
2022/10/19 10:11:46;;;;;;;5.75;2.00;;;;;;;11.07;83.81;102851.59;6221116;23;20048;-80
2022/10/19 10:14:29;;;;;;;9.55;1.83;;;;;;;11.12;83.89;102851.19;6220983;23;20068;-80
2022/10/19 10:17:00;;;;;;;5.53;1.77;;;;;;;11.14;83.41;102846.22;6221465;23;20116;-80
2022/10/19 10:19:29;;;;;;;6.50;2.88;;;;;;;11.22;84.05;102843.06;6220997;23;20092;-79
2022/10/19 10:21:57;;;;;;;3.75;1.25;;;;;;;11.26;81.63;102843.81;6221231;23;20486;-76
2022/10/19 10:24:27;;;;;;;4.55;1.60;;;;;;;11.26;81.52;102851.81;6221330;23;20092;-76
2022/10/19 10:26:56;;;;;;;3.22;1.35;;;;;;;11.28;80.77;102854.09;6221337;23;20145;-76
2022/10/19 10:29:31;;;;;;;9.63;1.50;;;;;;;11.30;80.92;102852.53;6221157;23;20114;-77
2022/10/19 10:32:07;;;;;;;2.80;1.50;;;;;;;11.31;81.25;102845.31;6221231;23;20041;-76
2022/10/19 10:34:40;;;;;;;10.55;1.55;;;;;;;11.27;80.13;102841.91;6221033;23;20047;-77
2022/10/19 10:37:29;;;;;;;4.53;1.67;;;;;;;11.28;80.66;102833.50;6221225;23;20064;-76
2022/10/19 10:39:57;;;;;;;7.50;1.73;;;;;;;11.37;80.39;102841.06;6221133;23;20048;-76
2022/10/19 10:42:43;;;;;;;4.75;1.73;;;;;;;11.43;80.54;102833.41;6221292;23;20023;-76
2022/10/19 10:45:28;;;;;;;9.20;1.98;;;;;;;11.49;79.80;102834.50;6220630;23;20392;-77
2022/10/19 10:47:55;;;;;;;4.20;1.48;;;;;;;11.54;79.30;102818.06;6220668;23;20052;-77
2022/10/19 10:50:33;;;;;;;2.80;1.30;;;;;;;11.61;79.82;102828.66;6194688;23;20439;-76
2022/10/19 10:53:02;;;;;;;4.32;1.38;;;;;;;11.65;79.39;102822.13;6221318;23;20045;-77
2022/10/19 10:55:30;;;;;;;4.32;1.67;;;;;;;11.66;78.92;102812.97;6221156;23;20096;-78
2022/10/19 10:58:18;;;;;;;4.63;1.50;;;;;;;11.70;79.41;102818.28;6194108;23;20089;-77
2022/10/19 11:00:49;;;;;;;6.10;2.08;;;;;;;11.72;79.18;102802.63;6221479;23;20096;-74
2022/10/19 11:03:23;;;;;;;10.77;1.70;;;;;;;11.78;78.49;102803.75;6220708;23;20502;-78
2022/10/19 11:05:59;;;;;;;3.53;1.48;;;;;;;11.81;79.25;102802.19;6221323;23;20080;-78
2022/10/19 11:08:55;;;;;;;2.90;1.70;;;;;;;11.85;78.83;102798.34;6221300;23;20339;-78
2022/10/19 11:11:38;;;;;;;10.52;1.55;;;;;;;11.86;79.09;102786.50;6208522;23;20028;-76
2022/10/19 11:14:29;;;;;;;5.80;2.00;;;;;;;11.93;78.89;102777.66;6221136;23;20104;-76
2022/10/19 11:17:01;;;;;;;97.13;60.87;;;;;;;11.96;77.77;102779.53;6220581;23;20084;-75
2022/10/19 11:19:39;;;;;;;5.22;2.22;;;;;;;12.00;78.03;102777.56;6221284;23;20119;-76
2022/10/19 11:22:18;;;;;;;3.17;1.50;;;;;;;12.03;76.75;102774.09;6221293;23;20065;-75
2022/10/19 11:25:21;;;;;;;5.30;1.60;;;;;;;12.09;76.57;102761.06;6221269;23;20379;-76
2022/10/19 11:28:14;;;;;;;3.00;1.25;;;;;;;12.16;76.79;102763.66;6221211;23;20096;-76
2022/10/19 11:30:49;;;;;;;3.33;1.50;;;;;;;12.25;77.00;102756.66;6221086;23;20048;-76
2022/10/19 11:33:26;;;;;;;1.70;1.17;;;;;;;12.30;75.35;102740.19;6220650;23;20020;-78
2022/10/19 11:35:58;;;;;;;5.72;1.27;;;;;;;12.34;74.87;102751.59;6221022;23;20049;-78
2022/10/19 11:38:30;;;;;;;2.55;2.25;;;;;;;12.38;74.86;102740.09;6221285;23;20040;-77
2022/10/19 11:41:12;;;;;;;4.90;1.42;;;;;;;12.42;75.46;102730.84;6221121;23;20036;-77
2022/10/19 11:43:57;;;;;;;3.83;1.30;;;;;;;12.46;74.94;102736.13;6221163;23;20044;-77
2022/10/19 11:46:37;;;;;;;3.95;1.50;;;;;;;12.49;74.49;102724.66;6220657;23;20053;-77
2022/10/19 11:49:24;;;;;;;5.78;1.30;;;;;;;12.51;74.20;102725.75;6221186;23;20040;-77